Iaciara, Brazil
Current Conditions -  °F | °C
As of 1:00 AM on Tuesday 21 Oct 2014 (Local Time) from SBBR Reporting Station
Scattered Clouds Scattered Clouds  
Wind Chill: 73°   Ceiling: Unl
Heat Index: 73°   Visibility: 6mi
Dew Point: 63°   Wind: 5mph
Humidity: 69%   Direction: 200°SSW
Pressure: 30.06"   Gusts: NA
Location:  14.1°S, 46.63°W
Report Text: SBBR 210400Z 20004KT 9999 FEW030 FEW040TCU SCT070 23/17 Q1018
Loading
Personal Weather Stations






























Interactive Weather Map
Tropical Storm Tracking
New forecast layout! Learn more

10-Day Weather Forecast

Advertisements
Track Severe Weather on mobile